createdAt,value
2023-01-01T00:00:28.771Z,99443.91
2023-01-01T00:02:57.730Z,99444.06
2023-01-01T00:05:25.627Z,99440.06
2023-01-01T00:07:53.659Z,99437.88
2023-01-01T00:10:30.547Z,99438.91
2023-01-01T00:12:59.457Z,99451.75
2023-01-01T00:15:29.153Z,99445.31
2023-01-01T00:17:57.824Z,99449.38
2023-01-01T00:20:31.532Z,99453.72
2023-01-01T00:23:02.766Z,99452.91
2023-01-01T00:25:32.613Z,99438.56
2023-01-01T00:28:00.762Z,99451.03
2023-01-01T00:30:30.252Z,99460.16
2023-01-01T00:32:58.238Z,99462.34
2023-01-01T00:35:26.778Z,99470.81
2023-01-01T00:37:56.416Z,99469.16
2023-01-01T00:40:24.619Z,99470.50
2023-01-01T00:42:52.622Z,99476.25
2023-01-01T00:45:22.629Z,99469.53
2023-01-01T00:47:53.857Z,99478.28
2023-01-01T00:50:22.882Z,99474.63
2023-01-01T00:52:50.978Z,99484.69
2023-01-01T00:55:19.298Z,99486.88
2023-01-01T00:57:47.288Z,99491.72
2023-01-01T01:00:16.720Z,99486.44
2023-01-01T01:02:44.771Z,99487.81
2023-01-01T01:05:14.173Z,99493.69
2023-01-01T01:07:42.696Z,99491.31
2023-01-01T01:10:12.225Z,99498.00
2023-01-01T01:12:40.394Z,99499.69
2023-01-01T01:15:10.341Z,99503.91
2023-01-01T01:17:38.447Z,99505.41
2023-01-01T01:20:07.464Z,99507.91
2023-01-01T01:22:36.782Z,99518.56
2023-01-01T01:25:05.193Z,99525.81
2023-01-01T01:27:33.309Z,99536.59
2023-01-01T01:30:01.318Z,99541.34
2023-01-01T01:32:29.529Z,99534.06
2023-01-01T01:34:57.522Z,99539.13
2023-01-01T01:37:25.586Z,99538.09
2023-01-01T01:39:54.829Z,99547.53
2023-01-01T01:42:22.962Z,99546.19
2023-01-01T01:44:57.770Z,99550.41
2023-01-01T01:47:30.967Z,99562.41
2023-01-01T01:50:03.932Z,99564.44
2023-01-01T01:52:33.933Z,99562.72
2023-01-01T01:55:06.792Z,99564.44
2023-01-01T01:57:35.653Z,99563.41
2023-01-01T02:00:10.669Z,99570.31
2023-01-01T02:02:46.443Z,99569.09
2023-01-01T02:05:15.376Z,99577.56
2023-01-01T02:07:44.222Z,99581.28
2023-01-01T02:10:13.920Z,99579.59
2023-01-01T02:12:42.023Z,99570.66
2023-01-01T02:15:10.826Z,99557.03
2023-01-01T02:17:47.295Z,99594.94
2023-01-01T02:20:28.677Z,99595.97
2023-01-01T02:23:16.978Z,99591.75
2023-01-01T02:25:58.238Z,99599.84
2023-01-01T02:28:47.059Z,99602.72
2023-01-01T02:31:23.517Z,99611.16
2023-01-01T02:33:54.718Z,99611.03
2023-01-01T02:36:24.670Z,99613.06
2023-01-01T02:38:56.137Z,99561.25
2023-01-01T02:41:28.382Z,99616.28
2023-01-01T02:46:24.888Z,99613.09
2023-01-01T02:48:54.360Z,99616.81
2023-01-01T02:51:36.577Z,99623.91
2023-01-01T02:54:12.514Z,99615.16
2023-01-01T02:56:46.738Z,99621.53
2023-01-01T02:59:40.233Z,99621.53
2023-01-01T03:02:19.162Z,99620.88
2023-01-01T03:05:05.074Z,99621.22
2023-01-01T03:07:42.254Z,99613.66
2023-01-01T03:10:15.636Z,99632.88
2023-01-01T03:12:49.992Z,99627.81
2023-01-01T03:15:28.406Z,99629.84
2023-01-01T03:18:04.249Z,99641.00
2023-01-01T03:20:35.471Z,99636.59
2023-01-01T03:23:07.792Z,99629.91
2023-01-01T03:25:41.606Z,99643.19
2023-01-01T03:28:14.054Z,99628.84
2023-01-01T03:30:46.972Z,99618.25
2023-01-01T03:33:19.722Z,99624.63
2023-01-01T03:35:51.639Z,99622.28
2023-01-01T03:38:24.373Z,99623.66
2023-01-01T03:40:58.168Z,99622.34
2023-01-01T03:43:40.845Z,99632.44
2023-01-01T03:46:13.970Z,99630.56
2023-01-01T03:49:03.203Z,99643.56
2023-01-01T03:51:53.223Z,99657.72
2023-01-01T03:54:31.422Z,99661.41
2023-01-01T03:57:07.035Z,99668.34
2023-01-01T03:59:42.399Z,99672.91
2023-01-01T04:02:15.472Z,99663.97
2023-01-01T04:04:43.950Z,99678.78
2023-01-01T04:07:15.912Z,99678.78
2023-01-01T04:09:50.806Z,99682.19
2023-01-01T04:12:20.175Z,99681.34
2023-01-01T04:14:48.208Z,99678.13
2023-01-01T04:17:17.668Z,99685.34
2023-01-01T04:19:50.190Z,99682.19
2023-01-01T04:22:23.429Z,99693.13
2023-01-01T04:24:51.764Z,99674.56
2023-01-01T04:27:19.846Z,99685.88
2023-01-01T04:29:47.747Z,99688.75
2023-01-01T04:32:17.045Z,99690.41
2023-01-01T04:34:45.003Z,99693.28
2023-01-01T04:37:13.574Z,99688.41
2023-01-01T04:39:41.848Z,99695.16
2023-01-01T04:42:10.525Z,99704.22
2023-01-01T04:44:38.539Z,99702.56
2023-01-01T04:47:06.673Z,99710.81
2023-01-01T04:49:36.017Z,99713.00
2023-01-01T04:52:04.501Z,99712.16
2023-01-01T04:54:32.471Z,99719.25
2023-01-01T04:57:00.594Z,99720.91
2023-01-01T04:59:30.973Z,99728.00
2023-01-01T05:01:59.849Z,99723.47
2023-01-01T05:04:27.989Z,99710.81
2023-01-01T05:06:57.315Z,99721.59
2023-01-01T05:09:25.259Z,99722.75
2023-01-01T05:11:55.445Z,99723.78
2023-01-01T05:14:23.578Z,99725.28
2023-01-01T05:16:51.526Z,99729.16
2023-01-01T05:19:19.653Z,99726.47
2023-01-01T05:21:47.619Z,99732.00
2023-01-01T05:24:17.044Z,99730.16
2023-01-01T05:26:46.182Z,99744.81
2023-01-01T05:29:17.110Z,99740.09
2023-01-01T05:31:46.803Z,99733.53
2023-01-01T05:34:14.986Z,99744.78
2023-01-01T05:36:43.077Z,99743.94
2023-01-01T05:39:13.588Z,99752.53
2023-01-01T05:41:43.080Z,99748.84
2023-01-01T05:44:11.718Z,99763.31
2023-01-01T05:46:40.167Z,99763.31
2023-01-01T05:49:11.190Z,99753.91
2023-01-01T05:54:06.575Z,99734.88
2023-01-01T05:56:34.775Z,99747.34
2023-01-01T05:59:04.276Z,99725.78
2023-01-01T06:01:32.977Z,99728.09
2023-01-01T06:04:01.384Z,99748.53
2023-01-01T06:06:33.025Z,99758.28
2023-01-01T06:09:02.228Z,99769.72
2023-01-01T06:11:30.713Z,99772.41
2023-01-01T06:14:00.198Z,99745.25
2023-01-01T06:16:30.912Z,99743.53
2023-01-01T06:19:00.045Z,99765.38
2023-01-01T06:21:29.362Z,99767.72
2023-01-01T06:23:58.551Z,99774.66
2023-01-01T06:26:28.617Z,99780.53
2023-01-01T06:28:57.326Z,99775.81
2023-01-01T06:31:26.171Z,99782.56
2023-01-01T06:33:55.693Z,99785.75
2023-01-01T06:36:25.569Z,99730.03
2023-01-01T06:38:56.851Z,99799.53
2023-01-01T06:41:26.694Z,99792.03
2023-01-01T06:43:56.403Z,99782.44
2023-01-01T06:46:26.617Z,99774.47
2023-01-01T06:48:57.893Z,99797.56
2023-01-01T06:51:27.965Z,99807.84
2023-01-01T06:53:56.166Z,99808.16
2023-01-01T06:56:24.268Z,99809.47
2023-01-01T06:58:52.321Z,99810.34
2023-01-01T07:01:22.640Z,99812.84
2023-01-01T07:03:57.544Z,99823.31
2023-01-01T07:06:26.431Z,99833.78
2023-01-01T07:08:54.428Z,99828.25
2023-01-01T07:11:23.099Z,99827.38
2023-01-01T07:13:51.087Z,99829.06
2023-01-01T07:16:19.511Z,99824.38
2023-01-01T07:18:49.111Z,99831.59
2023-01-01T07:21:30.064Z,99815.53
2023-01-01T07:23:59.512Z,99839.69
2023-01-01T07:26:28.459Z,99835.28
2023-01-01T07:29:02.825Z,99844.22
2023-01-01T07:31:34.856Z,99839.19
2023-01-01T07:34:03.032Z,99841.25
2023-01-01T07:36:32.398Z,99830.47
2023-01-01T07:39:00.377Z,99832.63
2023-01-01T07:41:28.442Z,99846.28
2023-01-01T07:43:56.465Z,99846.44
2023-01-01T07:46:24.610Z,99852.00
2023-01-01T07:48:52.641Z,99850.28
2023-01-01T07:51:20.564Z,99855.69
2023-01-01T07:53:49.909Z,99850.28
2023-01-01T07:56:17.961Z,99860.38
2023-01-01T07:58:45.923Z,99865.78
2023-01-01T08:01:15.741Z,99873.00
2023-01-01T08:03:44.091Z,99875.56
2023-01-01T08:06:13.988Z,99885.31
2023-01-01T08:08:42.386Z,99893.94
2023-01-01T08:11:11.716Z,99883.50
2023-01-01T08:13:39.606Z,99883.34
2023-01-01T08:16:08.239Z,99900.53
2023-01-01T08:18:36.486Z,99892.91
2023-01-01T08:21:05.470Z,99851.19
2023-01-01T08:23:33.476Z,99883.75
2023-01-01T08:26:02.358Z,99898.28
2023-01-01T08:28:32.393Z,99899.28
2023-01-01T08:31:00.543Z,99903.81
2023-01-01T08:33:30.433Z,99916.44
2023-01-01T08:35:58.671Z,99922.66
2023-01-01T08:38:26.731Z,99928.06
2023-01-01T08:40:54.883Z,99925.69
2023-01-01T08:43:22.760Z,99931.25
2023-01-01T08:45:52.434Z,99936.44
2023-01-01T08:48:23.157Z,99944.53
2023-01-01T08:50:55.147Z,99958.84
2023-01-01T08:53:23.839Z,99963.75
2023-01-01T08:55:58.770Z,99965.47
2023-01-01T08:58:27.506Z,99968.16
2023-01-01T09:00:57.016Z,99969.69
2023-01-01T09:03:25.062Z,99978.75
2023-01-01T09:05:53.818Z,99982.97
2023-01-01T09:08:22.815Z,99986.38
2023-01-01T09:10:51.515Z,99991.78
2023-01-01T09:13:22.552Z,99999.00
2023-01-01T09:15:51.022Z,99972.81
2023-01-01T09:18:20.297Z,99998.00
2023-01-01T09:20:48.470Z,100000.00
2023-01-01T09:23:16.688Z,99983.41
2023-01-01T09:25:44.664Z,99999.88
2023-01-01T09:28:14.422Z,100013.00
2023-01-01T09:30:42.523Z,100014.03
2023-01-01T09:33:10.456Z,100022.09
2023-01-01T09:35:44.112Z,100010.47
2023-01-01T09:38:12.204Z,100008.94
2023-01-01T09:40:52.698Z,100022.09
2023-01-01T09:43:33.989Z,100024.13
2023-01-01T09:46:06.599Z,100034.03
2023-01-01T09:48:39.414Z,100041.66
2023-01-01T09:51:19.625Z,100049.19
2023-01-01T09:53:54.976Z,100045.59
2023-01-01T09:56:27.368Z,100058.50
2023-01-01T09:58:59.141Z,100049.97
2023-01-01T10:01:40.302Z,100045.97
2023-01-01T10:04:29.647Z,100045.91
2023-01-01T10:07:10.543Z,100022.25
2023-01-01T10:09:47.657Z,100042.56
2023-01-01T10:12:26.447Z,100058.09
2023-01-01T10:15:03.026Z,100054.22
2023-01-01T10:17:38.232Z,100065.56
2023-01-01T10:20:15.664Z,100068.94
2023-01-01T10:22:48.576Z,100067.91
2023-01-01T10:25:20.173Z,100065.38
2023-01-01T10:27:57.105Z,100066.38
2023-01-01T10:30:28.657Z,100058.44
2023-01-01T10:32:57.690Z,100052.00
2023-01-01T10:35:31.289Z,100065.28
2023-01-01T10:38:02.335Z,100065.09
2023-01-01T10:40:31.616Z,100071.97
2023-01-01T10:43:01.474Z,100074.28
2023-01-01T10:45:34.321Z,100054.50
2023-01-01T10:48:17.468Z,100069.84
2023-01-01T10:50:49.376Z,100052.25
2023-01-01T10:53:31.545Z,100078.06
2023-01-01T10:56:08.592Z,100077.38
2023-01-01T10:58:42.997Z,100083.75
2023-01-01T11:01:13.876Z,100087.31
2023-01-01T11:03:59.181Z,100093.38
2023-01-01T11:06:29.593Z,100099.31
2023-01-01T11:09:03.429Z,100096.66
2023-01-01T11:11:33.465Z,100102.09
2023-01-01T11:14:06.113Z,100080.69
2023-01-01T11:16:34.583Z,100107.94
2023-01-01T11:19:05.100Z,100102.69
2023-01-01T11:21:34.278Z,100109.56
2023-01-01T11:24:19.372Z,100108.19
2023-01-01T11:26:54.821Z,100098.03
2023-01-01T11:29:28.879Z,100105.13
2023-01-01T11:31:58.403Z,100107.66
2023-01-01T11:34:33.630Z,100115.66
2023-01-01T11:37:17.442Z,100104.53
2023-01-01T11:39:50.177Z,100118.75
2023-01-01T11:42:20.936Z,100118.88
2023-01-01T11:44:53.852Z,100116.00
2023-01-01T11:47:26.147Z,100116.28
2023-01-01T11:50:00.944Z,100127.22
2023-01-01T11:52:36.177Z,100126.53
2023-01-01T11:55:16.901Z,100136.56
2023-01-01T11:57:52.566Z,100141.31
2023-01-01T12:00:20.653Z,100145.59
2023-01-01T12:02:57.352Z,100147.66
2023-01-01T12:05:27.528Z,100157.69
2023-01-01T12:07:59.699Z,100159.72
2023-01-01T12:10:36.739Z,100164.66
2023-01-01T12:13:08.190Z,100163.63
2023-01-01T12:15:39.102Z,100170.38
2023-01-01T12:18:14.465Z,100168.50
2023-01-01T12:20:49.307Z,100173.84
2023-01-01T12:23:19.406Z,100182.56
2023-01-01T12:25:55.905Z,100182.03
2023-01-01T12:28:34.685Z,100187.91
2023-01-01T12:31:08.609Z,100175.63
2023-01-01T12:33:50.997Z,100200.69
2023-01-01T12:36:33.709Z,100196.06
2023-01-01T12:40:00.555Z,100197.16
2023-01-01T12:42:42.451Z,100196.09
2023-01-01T12:45:34.348Z,100193.69
2023-01-01T12:48:15.949Z,100200.56
2023-01-01T12:51:01.490Z,100193.63
2023-01-01T12:53:42.441Z,100192.41
2023-01-01T12:56:22.847Z,100207.06
2023-01-01T12:58:57.377Z,100216.97
2023-01-01T13:01:33.069Z,100211.06
2023-01-01T13:04:04.177Z,100215.06
2023-01-01T13:06:37.523Z,100219.47
2023-01-01T13:09:08.816Z,100219.59
2023-01-01T13:11:44.542Z,100213.28
2023-01-01T13:14:14.739Z,100212.66
2023-01-01T13:16:44.345Z,100213.06
2023-01-01T13:19:26.903Z,100216.56
2023-01-01T13:21:55.269Z,100217.91
2023-01-01T13:24:25.238Z,100218.03
2023-01-01T13:26:53.864Z,100226.31
2023-01-01T13:29:47.219Z,100229.00
2023-01-01T13:32:16.860Z,100201.59
2023-01-01T13:35:18.899Z,100232.81
2023-01-01T13:37:48.623Z,100240.19
2023-01-01T13:40:56.465Z,100240.34
2023-01-01T13:43:29.387Z,100247.97
2023-01-01T13:46:11.915Z,100250.41
2023-01-01T13:49:21.039Z,100257.72
2023-01-01T13:52:26.139Z,100259.41
2023-01-01T13:55:41.642Z,100259.91
2023-01-01T13:58:50.000Z,100269.03
2023-01-01T14:01:40.671Z,100274.94
2023-01-01T14:04:17.072Z,100273.72
2023-01-01T14:06:51.034Z,100278.88
2023-01-01T14:09:26.462Z,100286.59
2023-01-01T14:11:54.598Z,100292.47
2023-01-01T14:14:28.407Z,100291.94
2023-01-01T14:17:01.274Z,100290.41
2023-01-01T14:19:30.324Z,100295.28
2023-01-01T14:21:58.577Z,100296.56
2023-01-01T14:24:28.042Z,100303.50
2023-01-01T14:26:56.680Z,100302.66
2023-01-01T14:29:28.799Z,100313.00
2023-01-01T14:32:01.053Z,100316.91
2023-01-01T14:34:30.886Z,100332.34
2023-01-01T14:37:00.278Z,100328.00
2023-01-01T14:39:30.085Z,100340.91
2023-01-01T14:42:01.938Z,100351.16
2023-01-01T14:44:35.169Z,100359.16
2023-01-01T14:47:05.806Z,100356.59
2023-01-01T14:49:38.818Z,100378.78
2023-01-01T14:52:10.356Z,100375.75
2023-01-01T14:54:40.269Z,100386.13
2023-01-01T14:57:13.711Z,100384.38
2023-01-01T14:59:47.653Z,100405.91
2023-01-01T15:02:18.867Z,100411.34
2023-01-01T15:04:47.024Z,100412.28
2023-01-01T15:07:22.033Z,100424.25
2023-01-01T15:09:50.357Z,100432.91
2023-01-01T15:12:20.224Z,100435.59
2023-01-01T15:14:50.254Z,100442.69
2023-01-01T15:17:21.791Z,100441.81
2023-01-01T15:20:02.632Z,100450.75
2023-01-01T15:22:32.756Z,100456.63
2023-01-01T15:25:01.677Z,100446.59
2023-01-01T15:27:31.847Z,100460.16
2023-01-01T15:30:00.851Z,100471.88
2023-01-01T15:32:32.712Z,100483.09
2023-01-01T15:35:03.107Z,100487.81
2023-01-01T15:37:34.987Z,100495.81
2023-01-01T15:40:33.893Z,100504.69
2023-01-01T15:43:16.253Z,100517.56
2023-01-01T15:45:54.166Z,100521.88
2023-01-01T15:48:30.877Z,100525.03
2023-01-01T15:51:17.810Z,100529.88
2023-01-01T15:53:52.783Z,100539.81
2023-01-01T15:56:23.504Z,100538.84
2023-01-01T15:58:56.467Z,100547.63
2023-01-01T16:01:27.094Z,100535.19
2023-01-01T16:04:04.646Z,100547.31
2023-01-01T16:06:32.756Z,100561.38
2023-01-01T16:09:00.714Z,100554.66
2023-01-01T16:11:28.838Z,100564.94
2023-01-01T16:13:56.778Z,100566.41
2023-01-01T16:16:28.063Z,100574.03
2023-01-01T16:18:58.361Z,100573.94
2023-01-01T16:21:28.773Z,100582.41
2023-01-01T16:23:58.304Z,100577.78
2023-01-01T16:26:26.680Z,100581.03
2023-01-01T16:28:54.633Z,100574.44
2023-01-01T16:31:27.992Z,100573.66
2023-01-01T16:33:58.864Z,100579.13
2023-01-01T16:36:29.095Z,100575.47
2023-01-01T16:38:57.506Z,100585.03
2023-01-01T16:41:28.309Z,100593.88
2023-01-01T16:43:56.228Z,100599.84
2023-01-01T16:46:24.267Z,100613.81
2023-01-01T16:48:52.376Z,100607.00
2023-01-01T16:51:25.222Z,100606.00
2023-01-01T16:53:53.246Z,100606.97
2023-01-01T16:56:22.683Z,100613.75
2023-01-01T16:58:54.300Z,100611.88
2023-01-01T17:01:26.543Z,100616.63
2023-01-01T17:03:54.744Z,100609.00
2023-01-01T17:06:24.145Z,100610.09
2023-01-01T17:08:52.096Z,100618.31
2023-01-01T17:11:21.088Z,100631.00
2023-01-01T17:13:49.668Z,100630.19
2023-01-01T17:16:26.069Z,100631.41
2023-01-01T17:21:46.747Z,100638.75
2023-01-01T17:24:15.002Z,100648.59
2023-01-01T17:26:42.997Z,100651.56
2023-01-01T17:29:11.882Z,100634.28
2023-01-01T17:31:40.033Z,100664.78
2023-01-01T17:34:11.908Z,100679.09
2023-01-01T17:36:42.428Z,100676.16
2023-01-01T17:39:13.289Z,100674.88
2023-01-01T17:41:41.577Z,100685.09
2023-01-01T17:44:11.158Z,100691.47
2023-01-01T17:46:39.719Z,100690.47
2023-01-01T17:49:09.124Z,100689.03
2023-01-01T17:51:37.253Z,100694.81
2023-01-01T17:54:07.273Z,100711.59
2023-01-01T17:56:36.777Z,100716.28
2023-01-01T17:59:04.855Z,100723.97
2023-01-01T18:01:35.416Z,100726.81
2023-01-01T18:04:06.733Z,100734.38
2023-01-01T18:06:41.408Z,100723.44
2023-01-01T18:09:13.019Z,100709.22
2023-01-01T18:11:43.622Z,100718.63
2023-01-01T18:14:13.338Z,100740.34
2023-01-01T18:16:42.628Z,100741.16
2023-01-01T18:19:10.556Z,100746.47
2023-01-01T18:21:38.634Z,100758.50
2023-01-01T18:24:12.922Z,100758.69
2023-01-01T18:26:42.525Z,100752.84
2023-01-01T18:29:10.604Z,100757.84
2023-01-01T18:31:38.662Z,100761.63
2023-01-01T18:34:07.008Z,100767.34
2023-01-01T18:36:36.075Z,100772.88
2023-01-01T18:39:10.977Z,100773.03
2023-01-01T18:41:56.605Z,100780.53
2023-01-01T18:44:26.837Z,100780.97
2023-01-01T18:46:59.350Z,100785.22
2023-01-01T18:49:27.434Z,100792.19
2023-01-01T18:51:58.245Z,100796.16
2023-01-01T18:54:26.887Z,100794.31
2023-01-01T18:57:06.856Z,100804.13
2023-01-01T18:59:37.122Z,100806.09
2023-01-01T19:02:23.589Z,100806.94
2023-01-01T19:04:51.800Z,100809.06
2023-01-01T19:07:19.846Z,100799.53
2023-01-01T19:09:47.782Z,100798.00
2023-01-01T19:12:19.300Z,100798.72
2023-01-01T19:14:49.315Z,100807.09
2023-01-01T19:17:22.596Z,100805.09
2023-01-01T19:19:52.564Z,100804.41
2023-01-01T19:22:30.897Z,100806.94
2023-01-01T19:25:03.902Z,100816.59
2023-01-01T19:27:34.116Z,100822.69
2023-01-01T19:30:03.181Z,100815.44
2023-01-01T19:32:31.128Z,100815.63
2023-01-01T19:34:59.136Z,100819.00
2023-01-01T19:37:27.074Z,100822.00
2023-01-01T19:39:55.167Z,100824.69
2023-01-01T19:42:23.141Z,100826.13
2023-01-01T19:44:52.454Z,100830.81
2023-01-01T19:47:20.409Z,100831.22
2023-01-01T19:49:55.243Z,100839.06
2023-01-01T19:52:23.739Z,100847.41
2023-01-01T19:54:51.768Z,100865.88
2023-01-01T19:57:20.913Z,100868.13
2023-01-01T19:59:48.822Z,100871.66
2023-01-01T20:02:44.904Z,100876.06
2023-01-01T20:05:06.787Z,100883.44
2023-01-01T20:07:35.104Z,100881.44
2023-01-01T20:10:03.121Z,100892.06
2023-01-01T20:12:31.130Z,100888.34
2023-01-01T20:14:59.249Z,100901.50
2023-01-01T20:17:28.637Z,100917.34
2023-01-01T20:19:56.745Z,100917.03
2023-01-01T20:22:24.816Z,100924.78
2023-01-01T20:24:52.813Z,100927.19
2023-01-01T20:27:24.366Z,100920.22
2023-01-01T20:29:51.558Z,100921.22
2023-01-01T20:32:20.263Z,100928.31
2023-01-01T20:34:50.598Z,100928.75
2023-01-01T20:37:36.094Z,100930.50
2023-01-01T20:40:05.818Z,100942.31
2023-01-01T20:42:33.777Z,100943.75
2023-01-01T20:45:01.711Z,100924.19
2023-01-01T20:47:29.828Z,100942.69
2023-01-01T20:49:59.157Z,100934.66
2023-01-01T20:52:27.199Z,100940.19
2023-01-01T20:54:55.170Z,100940.94
2023-01-01T20:57:23.206Z,100951.72
2023-01-01T20:59:51.193Z,100951.03
2023-01-01T21:02:19.223Z,100946.94
2023-01-01T21:04:47.310Z,100945.41
2023-01-01T21:07:16.743Z,100943.88
2023-01-01T21:09:44.729Z,100955.94
2023-01-01T21:12:12.825Z,100957.22
2023-01-01T21:14:40.826Z,100963.28
2023-01-01T21:17:21.122Z,100965.69
2023-01-01T21:19:49.737Z,100968.22
2023-01-01T21:22:19.140Z,100967.66
2023-01-01T21:24:53.393Z,100968.94
2023-01-01T21:27:26.388Z,100972.75
2023-01-01T21:29:58.255Z,100963.09
2023-01-01T21:32:29.328Z,100981.06
2023-01-01T21:34:57.374Z,100977.81
2023-01-01T21:37:50.987Z,100979.97
2023-01-01T21:40:41.484Z,100989.19
2023-01-01T21:43:28.897Z,100986.22
2023-01-01T21:45:59.360Z,100976.28
2023-01-01T21:48:30.959Z,100977.09
2023-01-01T21:51:00.146Z,100988.91
2023-01-01T21:53:31.804Z,100992.31
2023-01-01T21:55:59.964Z,100991.75
2023-01-01T21:58:51.047Z,100994.88
2023-01-01T22:01:25.882Z,100975.00
2023-01-01T22:04:02.352Z,100989.03
2023-01-01T22:06:36.766Z,100989.88
2023-01-01T22:09:15.141Z,100988.78
2023-01-01T22:11:43.151Z,100990.59
2023-01-01T22:14:14.620Z,100995.88
2023-01-01T22:16:42.898Z,101003.28
2023-01-01T22:19:19.589Z,101005.56
2023-01-01T22:21:49.095Z,101012.34
2023-01-01T22:24:33.407Z,100997.84
2023-01-01T22:27:24.063Z,100992.28
2023-01-01T22:29:52.213Z,101025.56
2023-01-01T22:32:24.009Z,101030.94
2023-01-01T22:34:53.776Z,101042.03
2023-01-01T22:37:24.435Z,101038.75
2023-01-01T22:39:54.029Z,101039.31
2023-01-01T22:42:23.409Z,101045.13
2023-01-01T22:44:58.374Z,101038.28
2023-01-01T22:47:34.076Z,101039.44
2023-01-01T22:50:02.941Z,101011.84
2023-01-01T22:52:30.879Z,101038.16
2023-01-01T22:55:00.360Z,101044.97
2023-01-01T22:57:28.357Z,101048.41
2023-01-01T22:59:56.622Z,101032.88
2023-01-01T23:02:24.688Z,101047.38
2023-01-01T23:04:52.748Z,101056.88
2023-01-01T23:07:20.723Z,101052.84
2023-01-01T23:09:48.882Z,101049.00
2023-01-01T23:12:18.383Z,101046.84
2023-01-01T23:15:03.615Z,101036.03
2023-01-01T23:17:31.752Z,101032.34
2023-01-01T23:19:59.726Z,101046.41
2023-01-01T23:22:29.562Z,101042.72
2023-01-01T23:24:57.867Z,101017.84
2023-01-01T23:27:27.451Z,101046.81
2023-01-01T23:29:55.797Z,101035.84
2023-01-01T23:32:23.983Z,101028.59
2023-01-01T23:34:52.173Z,101032.69
2023-01-01T23:37:20.427Z,101035.38
2023-01-01T23:39:48.406Z,101031.53
2023-01-01T23:42:16.369Z,101035.69
2023-01-01T23:44:45.853Z,101034.84
2023-01-01T23:47:14.547Z,101038.91
2023-01-01T23:49:43.631Z,101041.34
2023-01-01T23:52:11.799Z,101030.34
2023-01-01T23:54:39.949Z,101020.38
2023-01-01T23:57:07.929Z,101021.78
2023-01-01T23:59:35.944Z,101021.63
